createdAt,value
2023-03-02T00:02:10.643Z,-0.13
2023-03-02T00:04:47.441Z,-0.03
2023-03-02T00:07:21.460Z,0.05
2023-03-02T00:09:49.836Z,0.10
2023-03-02T00:12:18.317Z,0.12
2023-03-02T00:14:46.712Z,0.08
2023-03-02T00:17:15.090Z,0.00
2023-03-02T00:19:45.118Z,-0.06
2023-03-02T00:22:13.596Z,-0.12
2023-03-02T00:24:41.818Z,-0.20
2023-03-02T00:27:10.172Z,-0.29
2023-03-02T00:29:38.442Z,-0.40
2023-03-02T00:32:07.095Z,-0.58
2023-03-02T00:34:35.536Z,-0.76
2023-03-02T00:37:03.798Z,-0.94
2023-03-02T00:39:32.396Z,-1.09
2023-03-02T00:42:01.104Z,-1.22
2023-03-02T00:44:29.569Z,-1.28
2023-03-02T00:46:58.620Z,-1.28
2023-03-02T00:49:27.048Z,-1.23
2023-03-02T00:51:55.231Z,-1.18
2023-03-02T00:54:23.781Z,-1.18
2023-03-02T00:56:52.523Z,-1.24
2023-03-02T00:59:27.551Z,-1.27
2023-03-02T01:02:32.195Z,-1.31
2023-03-02T01:05:00.854Z,-1.32
2023-03-02T01:07:29.233Z,-1.33
2023-03-02T01:09:57.619Z,-1.30
2023-03-02T01:12:26.008Z,-1.29
2023-03-02T01:14:55.314Z,-1.32
2023-03-02T01:17:25.468Z,-1.36
2023-03-02T01:19:54.757Z,-1.36
2023-03-02T01:22:23.234Z,-1.32
2023-03-02T01:24:52.126Z,-1.21
2023-03-02T01:27:20.616Z,-1.11
2023-03-02T01:29:50.844Z,-1.01
2023-03-02T01:32:19.545Z,-0.91
2023-03-02T01:34:49.452Z,-0.82
2023-03-02T01:37:17.733Z,-0.71
2023-03-02T01:39:47.068Z,-0.61
2023-03-02T01:42:16.006Z,-0.54
2023-03-02T01:44:57.156Z,-0.48
2023-03-02T01:47:32.702Z,-0.41
2023-03-02T01:50:23.169Z,-0.37
2023-03-02T01:52:55.803Z,-0.34
2023-03-02T01:55:29.594Z,-0.35
2023-03-02T01:57:59.660Z,-0.36
2023-03-02T02:00:33.398Z,-0.40
2023-03-02T02:03:09.532Z,-0.44
2023-03-02T02:05:41.187Z,-0.48
2023-03-02T02:08:10.413Z,-0.53
2023-03-02T02:10:40.850Z,-0.59
2023-03-02T02:13:11.454Z,-0.69
2023-03-02T02:15:41.636Z,-0.78
2023-03-02T02:18:10.604Z,-0.85
2023-03-02T02:20:47.964Z,-0.93
2023-03-02T02:23:28.206Z,-0.99
2023-03-02T02:26:00.029Z,-1.03
2023-03-02T02:28:35.030Z,-1.06
2023-03-02T02:31:09.466Z,-1.09
2023-03-02T02:33:41.310Z,-1.10
2023-03-02T02:36:17.566Z,-1.12
2023-03-02T02:38:51.991Z,-1.11
2023-03-02T02:41:26.617Z,-1.10
2023-03-02T02:43:56.305Z,-1.07
2023-03-02T02:46:25.913Z,-1.05
2023-03-02T02:48:54.436Z,-1.04
2023-03-02T02:51:26.935Z,-1.04
2023-03-02T02:54:00.012Z,-1.04
2023-03-02T02:56:36.375Z,-1.03
2023-03-02T02:59:07.948Z,-1.01
2023-03-02T03:01:36.452Z,-1.01
2023-03-02T03:04:06.283Z,-1.00
2023-03-02T03:06:42.686Z,-0.99
2023-03-02T03:09:12.368Z,-0.96
2023-03-02T03:11:50.838Z,-0.93
2023-03-02T03:14:25.144Z,-0.90
2023-03-02T03:16:54.136Z,-0.84
2023-03-02T03:19:29.391Z,-0.79
2023-03-02T03:22:01.758Z,-0.71
2023-03-02T03:24:34.753Z,-0.63
2023-03-02T03:27:07.578Z,-0.55
2023-03-02T03:29:39.595Z,-0.46
2023-03-02T03:32:09.567Z,-0.36
2023-03-02T03:34:41.163Z,-0.33
2023-03-02T03:37:19.899Z,-0.37
2023-03-02T03:39:48.589Z,-0.38
2023-03-02T03:42:18.402Z,-0.35
2023-03-02T03:44:47.706Z,-0.33
2023-03-02T03:47:17.017Z,-0.31
2023-03-02T03:49:45.602Z,-0.27
2023-03-02T03:52:13.883Z,-0.24
2023-03-02T03:54:42.471Z,-0.15
2023-03-02T03:57:12.298Z,-0.10
2023-03-02T03:59:41.193Z,-0.06
2023-03-02T04:02:09.971Z,-0.01
2023-03-02T04:04:41.941Z,0.01
2023-03-02T04:07:16.572Z,-0.05
2023-03-02T04:09:46.012Z,-0.12
2023-03-02T04:12:15.894Z,-0.16
2023-03-02T04:14:48.676Z,-0.20
2023-03-02T04:17:17.368Z,-0.27
2023-03-02T04:19:48.223Z,-0.29
2023-03-02T04:22:17.420Z,-0.33
2023-03-02T04:24:47.823Z,-0.40
2023-03-02T04:27:16.844Z,-0.45
2023-03-02T04:29:45.641Z,-0.51
2023-03-02T04:32:17.534Z,-0.57
2023-03-02T04:34:50.191Z,-0.61
2023-03-02T04:37:19.318Z,-0.60
2023-03-02T04:39:51.618Z,-0.57
2023-03-02T04:42:21.295Z,-0.57
2023-03-02T04:44:50.078Z,-0.54
2023-03-02T04:47:19.487Z,-0.52
2023-03-02T04:49:50.743Z,-0.51
2023-03-02T04:52:19.135Z,-0.49
2023-03-02T04:54:48.025Z,-0.46
2023-03-02T04:57:16.611Z,-0.47
2023-03-02T04:59:44.795Z,-0.45
2023-03-02T05:02:13.392Z,-0.44
2023-03-02T05:04:42.511Z,-0.43
2023-03-02T05:07:11.172Z,-0.44
2023-03-02T05:09:39.654Z,-0.40
2023-03-02T05:12:08.243Z,-0.36
2023-03-02T05:14:36.538Z,-0.34
2023-03-02T05:17:04.870Z,-0.32
2023-03-02T05:19:33.293Z,-0.26
2023-03-02T05:22:02.371Z,-0.22
2023-03-02T05:24:30.986Z,-0.15
2023-03-02T05:26:59.268Z,-0.11
2023-03-02T05:29:27.650Z,-0.10
2023-03-02T05:31:55.989Z,-0.07
2023-03-02T05:34:24.339Z,-0.04
2023-03-02T05:36:52.511Z,-0.03
2023-03-02T05:39:20.824Z,0.00
2023-03-02T05:41:49.099Z,0.03
2023-03-02T05:44:17.660Z,0.04
2023-03-02T05:46:46.696Z,0.04
2023-03-02T05:49:15.543Z,0.02
2023-03-02T05:51:44.035Z,0.02
2023-03-02T05:54:12.944Z,0.04
2023-03-02T05:56:41.728Z,0.07
2023-03-02T05:59:10.204Z,0.14
2023-03-02T06:01:39.028Z,0.22
2023-03-02T06:04:07.502Z,0.27
2023-03-02T06:06:36.154Z,0.27
2023-03-02T06:09:04.774Z,0.32
2023-03-02T06:11:32.951Z,0.39
2023-03-02T06:14:01.331Z,0.45
2023-03-02T06:16:29.764Z,0.52
2023-03-02T06:18:57.995Z,0.59
2023-03-02T06:21:26.385Z,0.68
2023-03-02T06:23:57.439Z,0.73
2023-03-02T06:26:26.022Z,0.80
2023-03-02T06:28:54.409Z,0.84
2023-03-02T06:31:25.080Z,0.89
2023-03-02T06:33:56.695Z,0.99
2023-03-02T06:36:25.840Z,1.11
2023-03-02T06:38:54.642Z,1.22
2023-03-02T06:41:23.283Z,1.30
2023-03-02T06:43:51.776Z,1.39
2023-03-02T06:46:20.425Z,1.47
2023-03-02T06:48:49.049Z,1.50
2023-03-02T06:51:18.158Z,1.51
2023-03-02T06:53:46.457Z,1.56
2023-03-02T06:56:15.432Z,1.62
2023-03-02T06:58:44.019Z,1.59
2023-03-02T07:01:12.431Z,1.57
2023-03-02T07:03:40.893Z,1.53
2023-03-02T07:06:11.628Z,1.55
2023-03-02T07:08:41.250Z,1.56
2023-03-02T07:11:12.281Z,1.56
2023-03-02T07:13:40.566Z,1.56
2023-03-02T07:16:11.783Z,1.57
2023-03-02T07:18:40.508Z,1.64
2023-03-02T07:21:08.796Z,1.73
2023-03-02T07:23:37.174Z,1.85
2023-03-02T07:26:08.783Z,1.95
2023-03-02T07:28:43.417Z,2.08
2023-03-02T07:31:12.552Z,2.23
2023-03-02T07:33:41.145Z,2.37
2023-03-02T07:36:09.845Z,2.52
2023-03-02T07:38:38.954Z,2.58
2023-03-02T07:41:09.359Z,2.66
2023-03-02T07:43:38.068Z,2.77
2023-03-02T07:46:06.928Z,2.86
2023-03-02T07:48:35.768Z,2.99
2023-03-02T07:51:06.166Z,3.03
2023-03-02T07:53:34.382Z,3.13
2023-03-02T07:56:07.788Z,3.23
2023-03-02T07:58:36.664Z,3.33
2023-03-02T08:01:12.629Z,3.45
2023-03-02T08:03:46.526Z,3.58
2023-03-02T08:06:15.118Z,3.63
2023-03-02T08:08:43.310Z,3.71
2023-03-02T08:11:16.077Z,3.78
2023-03-02T08:13:44.893Z,3.90
2023-03-02T08:16:15.579Z,3.94
2023-03-02T08:18:44.346Z,3.96
2023-03-02T08:21:18.932Z,4.06
2023-03-02T08:23:47.823Z,4.06
2023-03-02T08:26:17.671Z,4.11
2023-03-02T08:28:46.952Z,4.18
2023-03-02T08:31:15.900Z,4.22
2023-03-02T08:33:46.402Z,4.30
2023-03-02T08:36:19.781Z,4.42
2023-03-02T08:38:49.628Z,4.57
2023-03-02T08:41:22.453Z,4.72
2023-03-02T08:43:54.282Z,4.91
2023-03-02T08:46:23.148Z,5.05
2023-03-02T08:48:51.856Z,5.15
2023-03-02T08:51:24.204Z,5.25
2023-03-02T08:54:14.273Z,5.30
2023-03-02T08:57:37.492Z,5.42
2023-03-02T09:00:19.796Z,5.56
2023-03-02T09:02:53.872Z,5.70
2023-03-02T09:05:25.390Z,5.76
2023-03-02T09:07:53.980Z,5.78
2023-03-02T09:10:22.364Z,5.83
2023-03-02T09:12:50.949Z,5.93
2023-03-02T09:15:19.339Z,6.01
2023-03-02T09:17:47.681Z,6.15
2023-03-02T09:20:30.206Z,6.40
2023-03-02T09:22:58.612Z,6.76
2023-03-02T09:25:27.107Z,7.12
2023-03-02T09:27:55.497Z,7.43
2023-03-02T09:30:23.976Z,7.62
2023-03-02T09:32:52.404Z,7.94
2023-03-02T09:35:20.900Z,8.23
2023-03-02T09:37:49.391Z,8.43
2023-03-02T09:40:23.844Z,8.71
2023-03-02T09:43:02.169Z,9.13
2023-03-02T09:45:49.795Z,10.27
2023-03-02T09:48:24.781Z,10.76
2023-03-02T09:51:10.307Z,11.03
2023-03-02T09:53:52.896Z,11.16
2023-03-02T09:56:28.469Z,11.39
2023-03-02T09:59:27.865Z,11.46
2023-03-02T10:02:16.717Z,11.29
2023-03-02T10:05:02.869Z,11.26
2023-03-02T10:07:39.098Z,11.03
2023-03-02T10:10:22.211Z,10.92
2023-03-02T10:13:17.690Z,10.93
2023-03-02T10:16:03.090Z,10.92
2023-03-02T10:19:13.234Z,10.62
2023-03-02T10:22:02.160Z,10.40
2023-03-02T10:25:01.606Z,10.10
2023-03-02T10:27:57.690Z,9.80
2023-03-02T10:30:43.344Z,10.25
2023-03-02T10:33:37.719Z,10.91
2023-03-02T10:36:22.373Z,12.12
2023-03-02T10:38:54.889Z,13.18
2023-03-02T10:41:29.461Z,14.03
2023-03-02T10:44:18.211Z,15.02
2023-03-02T10:46:47.754Z,15.96
2023-03-02T10:49:34.323Z,16.54
2023-03-02T10:52:08.638Z,16.80
2023-03-02T10:54:37.544Z,16.22
2023-03-02T10:57:31.700Z,15.53
2023-03-02T11:00:15.451Z,14.94
2023-03-02T11:02:52.830Z,15.76
2023-03-02T11:05:29.710Z,15.76
2023-03-02T11:08:06.692Z,15.42
2023-03-02T11:10:51.972Z,14.71
2023-03-02T11:13:27.009Z,14.03
2023-03-02T11:15:59.908Z,14.56
2023-03-02T11:18:37.699Z,14.58
2023-03-02T11:21:08.624Z,15.07
2023-03-02T11:24:05.153Z,15.48
2023-03-02T11:26:47.788Z,15.51
2023-03-02T11:29:28.020Z,15.30
2023-03-02T11:32:01.590Z,15.18
2023-03-02T11:34:54.576Z,15.37
2023-03-02T11:37:39.347Z,14.98
2023-03-02T11:40:37.388Z,14.38
2023-03-02T11:43:05.888Z,14.14
2023-03-02T11:45:38.308Z,14.08
2023-03-02T11:48:31.107Z,13.87
2023-03-02T11:51:03.464Z,13.79
2023-03-02T11:53:58.620Z,14.14
2023-03-02T11:56:31.862Z,14.40
2023-03-02T11:59:04.965Z,14.20
2023-03-02T12:01:36.447Z,14.17
2023-03-02T12:04:11.382Z,14.14
2023-03-02T12:06:42.346Z,14.11
2023-03-02T12:09:24.704Z,13.90
2023-03-02T12:12:00.541Z,13.56
2023-03-02T12:14:49.300Z,13.53
2023-03-02T12:17:31.394Z,13.75
2023-03-02T12:20:08.789Z,14.07
2023-03-02T12:22:38.089Z,13.99
2023-03-02T12:25:18.850Z,13.88
2023-03-02T12:27:50.306Z,13.65
2023-03-02T12:30:23.997Z,13.62
2023-03-02T12:33:19.872Z,13.84
2023-03-02T12:35:57.315Z,14.24
2023-03-02T12:38:31.239Z,14.63
2023-03-02T12:41:17.732Z,15.18
2023-03-02T12:43:55.591Z,15.66
2023-03-02T12:46:37.427Z,16.07
2023-03-02T12:49:13.948Z,16.65
2023-03-02T12:52:04.364Z,17.26
2023-03-02T12:54:34.911Z,17.90
2023-03-02T12:57:18.987Z,18.63
2023-03-02T12:59:55.965Z,19.55
2023-03-02T13:02:29.489Z,20.42
2023-03-02T13:05:00.633Z,20.91
2023-03-02T13:07:44.204Z,21.09
2023-03-02T13:10:36.313Z,21.18
2023-03-02T13:13:20.457Z,21.63
2023-03-02T13:16:06.688Z,22.17
2023-03-02T13:18:39.559Z,22.88
2023-03-02T13:21:13.269Z,23.12
2023-03-02T13:23:50.088Z,23.59
2023-03-02T13:26:40.601Z,23.87
2023-03-02T13:29:15.041Z,24.28
2023-03-02T13:31:43.464Z,24.23
2023-03-02T13:34:23.335Z,24.35
2023-03-02T13:36:52.069Z,24.88
2023-03-02T13:39:28.252Z,25.37
2023-03-02T13:41:59.061Z,26.07
2023-03-02T13:44:35.435Z,26.07
2023-03-02T13:47:04.232Z,25.30
2023-03-02T13:49:35.840Z,24.59
2023-03-02T13:52:22.892Z,24.91
2023-03-02T13:54:51.479Z,25.34
2023-03-02T13:57:30.572Z,25.64
2023-03-02T14:00:00.147Z,26.10
2023-03-02T14:02:30.663Z,26.37
2023-03-02T14:04:59.146Z,26.54
2023-03-02T14:07:27.629Z,26.62
2023-03-02T14:09:57.528Z,26.57
2023-03-02T14:12:29.617Z,26.69
2023-03-02T14:15:01.713Z,27.22
2023-03-02T14:17:30.577Z,27.57
2023-03-02T14:19:59.074Z,27.72
2023-03-02T14:22:29.812Z,27.71
2023-03-02T14:24:58.088Z,27.84
2023-03-02T14:27:30.162Z,27.72
2023-03-02T14:29:59.323Z,27.50
2023-03-02T14:32:28.307Z,27.29
2023-03-02T14:34:57.599Z,26.84
2023-03-02T14:37:29.133Z,25.53
2023-03-02T14:39:57.888Z,24.41
2023-03-02T14:42:26.397Z,23.48
2023-03-02T14:44:55.027Z,22.48
2023-03-02T14:47:24.404Z,22.07
2023-03-02T14:49:53.799Z,21.81
2023-03-02T14:52:38.467Z,22.15
2023-03-02T14:55:18.693Z,22.23
2023-03-02T14:57:51.602Z,22.10
2023-03-02T15:00:20.919Z,22.19
2023-03-02T15:02:49.637Z,22.40
2023-03-02T15:05:18.783Z,22.52
2023-03-02T15:07:47.495Z,21.71
2023-03-02T15:10:19.161Z,20.63
2023-03-02T15:12:47.442Z,19.58
2023-03-02T15:15:15.924Z,18.23
2023-03-02T15:17:44.106Z,16.85
2023-03-02T15:20:16.948Z,15.88
2023-03-02T15:22:45.482Z,15.10
2023-03-02T15:25:13.909Z,14.48
2023-03-02T15:27:43.068Z,13.94
2023-03-02T15:30:21.191Z,13.51
2023-03-02T15:32:49.365Z,13.14
2023-03-02T15:35:18.042Z,12.75
2023-03-02T15:37:46.740Z,12.39
2023-03-02T15:40:15.529Z,12.08
2023-03-02T15:42:43.805Z,11.79
2023-03-02T15:45:12.298Z,11.53
2023-03-02T15:47:41.185Z,11.11
2023-03-02T15:50:10.531Z,10.75
2023-03-02T15:52:38.794Z,10.52
2023-03-02T15:55:07.583Z,10.29
2023-03-02T15:58:36.467Z,10.08
2023-03-02T16:01:44.431Z,9.74
2023-03-02T16:04:12.703Z,9.55
2023-03-02T16:06:41.302Z,9.32
2023-03-02T16:09:10.516Z,9.08
2023-03-02T16:11:44.008Z,8.85
2023-03-02T16:14:15.754Z,8.58
2023-03-02T16:16:45.846Z,8.32
2023-03-02T16:19:18.990Z,8.08
2023-03-02T16:21:48.805Z,7.87
2023-03-02T16:24:17.235Z,7.74
2023-03-02T16:26:46.157Z,7.59
2023-03-02T16:29:14.644Z,7.45
2023-03-02T16:31:46.692Z,7.27
2023-03-02T16:34:15.434Z,7.08
2023-03-02T16:36:44.544Z,6.92
2023-03-02T16:39:13.632Z,6.75
2023-03-02T16:41:43.852Z,6.63
2023-03-02T16:44:16.323Z,6.50
2023-03-02T16:46:44.881Z,6.37
2023-03-02T16:49:14.748Z,6.22
2023-03-02T16:51:43.324Z,6.06
2023-03-02T16:54:16.216Z,5.96
2023-03-02T16:56:47.674Z,5.87
2023-03-02T16:59:16.687Z,5.76
2023-03-02T17:01:45.452Z,5.67
2023-03-02T17:04:14.196Z,5.57
2023-03-02T17:07:00.435Z,5.45
2023-03-02T17:09:30.585Z,5.35
2023-03-02T17:11:58.948Z,5.27
2023-03-02T17:14:28.151Z,5.19
2023-03-02T17:16:57.269Z,5.12
2023-03-02T17:19:32.716Z,4.99
2023-03-02T17:22:02.736Z,4.83
2023-03-02T17:24:31.814Z,4.71
2023-03-02T17:27:00.425Z,4.63
2023-03-02T17:29:28.907Z,4.55
2023-03-02T17:31:57.250Z,4.49
2023-03-02T17:34:28.832Z,4.36
2023-03-02T17:37:00.951Z,4.23
2023-03-02T17:39:29.898Z,4.09
2023-03-02T17:41:58.491Z,4.03
2023-03-02T17:44:27.722Z,3.96
2023-03-02T17:46:56.897Z,3.86
2023-03-02T17:49:25.383Z,3.70
2023-03-02T17:51:53.769Z,3.61
2023-03-02T17:54:22.459Z,3.54
2023-03-02T17:56:51.146Z,3.49
2023-03-02T17:59:19.851Z,3.41
2023-03-02T18:01:48.339Z,3.30
2023-03-02T18:04:16.585Z,3.15
2023-03-02T18:06:44.992Z,3.01
2023-03-02T18:09:13.480Z,2.91
2023-03-02T18:11:45.040Z,2.84
2023-03-02T18:14:16.503Z,2.75
2023-03-02T18:16:45.285Z,2.66
2023-03-02T18:19:13.871Z,2.59
2023-03-02T18:21:42.705Z,2.57
2023-03-02T18:24:11.358Z,2.55
2023-03-02T18:26:39.882Z,2.52
2023-03-02T18:29:08.241Z,2.48
2023-03-02T18:31:37.069Z,2.44
2023-03-02T18:34:05.822Z,2.37
2023-03-02T18:36:34.202Z,2.30
2023-03-02T18:39:04.138Z,2.27
2023-03-02T18:41:32.917Z,2.22
2023-03-02T18:44:01.599Z,2.16
2023-03-02T18:46:31.654Z,2.11
2023-03-02T18:49:01.167Z,2.00
2023-03-02T18:51:29.723Z,1.89
2023-03-02T18:53:58.116Z,1.80
2023-03-02T18:56:26.599Z,1.75
2023-03-02T18:58:55.301Z,1.72
2023-03-02T19:01:23.602Z,1.68
2023-03-02T19:03:53.386Z,1.63
2023-03-02T19:06:23.307Z,1.54
2023-03-02T19:08:52.208Z,1.41
2023-03-02T19:11:20.802Z,1.39
2023-03-02T19:13:49.487Z,1.37
2023-03-02T19:16:18.605Z,1.36
2023-03-02T19:18:48.746Z,1.33
2023-03-02T19:21:17.525Z,1.29
2023-03-02T19:23:46.636Z,1.24
2023-03-02T19:26:16.217Z,1.19
2023-03-02T19:28:44.815Z,1.09
2023-03-02T19:31:13.982Z,1.01
2023-03-02T19:33:45.102Z,0.94
2023-03-02T19:36:14.261Z,0.91
2023-03-02T19:38:44.671Z,0.86
2023-03-02T19:41:19.111Z,0.81
2023-03-02T19:43:47.909Z,0.73
2023-03-02T19:46:17.916Z,0.72
2023-03-02T19:48:46.309Z,0.72
2023-03-02T19:51:15.929Z,0.71
2023-03-02T19:53:46.253Z,0.65
2023-03-02T19:56:16.407Z,0.56
2023-03-02T19:58:49.925Z,0.53
2023-03-02T20:01:21.924Z,0.51
2023-03-02T20:03:52.756Z,0.50
2023-03-02T20:06:24.343Z,0.47
2023-03-02T20:08:52.825Z,0.41
2023-03-02T20:11:22.752Z,0.30
2023-03-02T20:13:52.980Z,0.23
2023-03-02T20:16:23.129Z,0.17
2023-03-02T20:18:52.763Z,0.10
2023-03-02T20:21:21.432Z,0.07
2023-03-02T20:23:50.247Z,0.03
2023-03-02T20:26:19.419Z,0.01
2023-03-02T20:28:48.464Z,-0.03
2023-03-02T20:31:18.273Z,-0.06
2023-03-02T20:33:50.288Z,-0.08
2023-03-02T20:36:24.306Z,-0.08
2023-03-02T20:39:08.948Z,-0.09
2023-03-02T20:41:37.745Z,-0.10
2023-03-02T20:44:06.640Z,-0.14
2023-03-02T20:46:43.106Z,-0.18
2023-03-02T20:49:15.340Z,-0.22
2023-03-02T20:51:51.342Z,-0.28
2023-03-02T20:54:22.794Z,-0.38
2023-03-02T20:56:52.102Z,-0.40
2023-03-02T20:59:21.500Z,-0.43
2023-03-02T21:01:50.432Z,-0.45
2023-03-02T21:04:18.982Z,-0.47
2023-03-02T21:06:47.482Z,-0.51
2023-03-02T21:09:18.084Z,-0.53
2023-03-02T21:11:47.574Z,-0.54
2023-03-02T21:14:16.223Z,-0.55
2023-03-02T21:16:45.047Z,-0.58
2023-03-02T21:19:16.969Z,-0.62
2023-03-02T21:21:45.666Z,-0.65
2023-03-02T21:24:17.076Z,-0.67
2023-03-02T21:26:46.807Z,-0.69
2023-03-02T21:29:16.831Z,-0.70
2023-03-02T21:31:46.293Z,-0.71
2023-03-02T21:34:16.113Z,-0.73
2023-03-02T21:36:44.578Z,-0.73
2023-03-02T21:39:14.142Z,-0.74
2023-03-02T21:41:42.776Z,-0.73
2023-03-02T21:44:11.770Z,-0.72
2023-03-02T21:46:40.497Z,-0.72
2023-03-02T21:49:09.259Z,-0.71
2023-03-02T21:51:37.842Z,-0.70
2023-03-02T21:54:06.057Z,-0.67
2023-03-02T21:56:35.688Z,-0.66
2023-03-02T21:59:04.529Z,-0.65
2023-03-02T22:01:35.743Z,-0.61
2023-03-02T22:04:04.476Z,-0.57
2023-03-02T22:06:34.601Z,-0.52
2023-03-02T22:09:04.326Z,-0.49
2023-03-02T22:11:35.662Z,-0.48
2023-03-02T22:14:15.229Z,-0.52
2023-03-02T22:16:47.611Z,-0.59
2023-03-02T22:19:27.090Z,-0.62
2023-03-02T22:22:00.614Z,-0.63
2023-03-02T22:24:31.608Z,-0.66
2023-03-02T22:27:19.085Z,-0.67
2023-03-02T22:29:48.353Z,-0.71
2023-03-02T22:32:22.772Z,-0.73
2023-03-02T22:34:59.285Z,-0.76
2023-03-02T22:37:30.527Z,-0.81
2023-03-02T22:40:17.234Z,-0.85
2023-03-02T22:42:45.924Z,-0.93
2023-03-02T22:45:22.249Z,-1.00
2023-03-02T22:47:53.705Z,-1.06
2023-03-02T22:50:28.482Z,-1.11
2023-03-02T22:52:58.596Z,-1.17
2023-03-02T22:55:42.344Z,-1.29
2023-03-02T22:58:31.185Z,-1.37
2023-03-02T23:01:01.890Z,-1.43
2023-03-02T23:03:39.186Z,-1.46
2023-03-02T23:06:24.767Z,-1.50
2023-03-02T23:08:55.433Z,-1.55
2023-03-02T23:11:26.164Z,-1.59
2023-03-02T23:13:55.648Z,-1.62
2023-03-02T23:16:27.477Z,-1.67
2023-03-02T23:18:59.444Z,-1.70
2023-03-02T23:21:48.763Z,-1.72
2023-03-02T23:24:19.203Z,-1.76
2023-03-02T23:26:51.573Z,-1.80
2023-03-02T23:29:21.410Z,-1.82
2023-03-02T23:31:50.265Z,-1.83
2023-03-02T23:34:18.769Z,-1.88
2023-03-02T23:36:47.158Z,-1.93
2023-03-02T23:39:16.364Z,-1.98
2023-03-02T23:41:44.947Z,-2.04
2023-03-02T23:44:13.435Z,-2.07
2023-03-02T23:46:42.740Z,-2.10
2023-03-02T23:49:11.737Z,-2.14
2023-03-02T23:51:40.408Z,-2.17
2023-03-02T23:54:08.606Z,-2.19
2023-03-02T23:56:36.993Z,-2.22
2023-03-02T23:59:05.879Z,-2.24
